createdAt,value
2019-04-12T00:00:12.094Z,6.30
2019-04-12T00:02:42.446Z,6.30
2019-04-12T00:05:12.811Z,6.10
2019-04-12T00:07:43.154Z,6.10
2019-04-12T00:10:13.517Z,6.10
2019-04-12T00:12:43.865Z,6.00
2019-04-12T00:15:14.250Z,6.00
2019-04-12T00:17:44.898Z,6.00
2019-04-12T00:20:15.434Z,6.00
2019-04-12T00:22:46.424Z,5.80
2019-04-12T00:25:17.391Z,5.90
2019-04-12T00:27:48.970Z,5.70
2019-04-12T00:30:21.320Z,5.70
2019-04-12T00:32:52.428Z,5.70
2019-04-12T00:35:22.949Z,5.70
2019-04-12T00:37:55.772Z,5.70
2019-04-12T00:40:25.367Z,5.70
2019-04-12T00:42:55.734Z,5.60
2019-04-12T00:45:26.073Z,5.50
2019-04-12T00:47:56.438Z,5.60
2019-04-12T00:50:26.769Z,5.60
2019-04-12T00:52:57.130Z,5.40
2019-04-12T00:55:27.479Z,5.50
2019-04-12T00:57:57.900Z,5.40
2019-04-12T01:00:29.864Z,5.40
2019-04-12T01:03:02.585Z,5.20
2019-04-12T01:05:34.346Z,5.20
2019-04-12T01:08:09.202Z,5.30
2019-04-12T01:10:41.656Z,5.10
2019-04-12T01:13:12.012Z,5.20
2019-04-12T01:15:42.364Z,5.20
2019-04-12T01:18:12.723Z,5.20
2019-04-12T01:20:43.670Z,5.20
2019-04-12T01:23:15.146Z,5.10
2019-04-12T01:25:45.550Z,5.10
2019-04-12T01:28:18.108Z,5.00
2019-04-12T01:30:47.959Z,5.00
2019-04-12T01:33:18.325Z,5.00
2019-04-12T01:35:48.697Z,5.00
2019-04-12T01:38:19.089Z,5.00
2019-04-12T01:40:49.433Z,4.80
2019-04-12T01:43:19.811Z,4.80
2019-04-12T01:45:50.147Z,4.80
2019-04-12T01:48:20.534Z,4.60
2019-04-12T01:50:50.874Z,4.70
2019-04-12T01:53:21.248Z,4.70
2019-04-12T01:55:51.638Z,4.60
2019-04-12T01:58:22.005Z,4.60
2019-04-12T02:00:52.393Z,4.50
2019-04-12T02:03:22.733Z,4.40
2019-04-12T02:05:53.114Z,4.60
2019-04-12T02:08:23.458Z,4.50
2019-04-12T02:10:53.819Z,4.50
2019-04-12T02:13:24.184Z,4.40
2019-04-12T02:15:54.567Z,4.60
2019-04-12T02:18:24.917Z,4.60
2019-04-12T02:20:55.318Z,4.60
2019-04-12T02:23:25.685Z,4.60
2019-04-12T02:25:56.172Z,4.60
2019-04-12T02:28:28.529Z,4.50
2019-04-12T02:31:02.114Z,4.40
2019-04-12T02:33:32.478Z,4.50
2019-04-12T02:36:02.963Z,4.30
2019-04-12T02:38:33.302Z,4.30
2019-04-12T02:41:04.093Z,4.30
2019-04-12T02:43:34.511Z,4.20
2019-04-12T02:46:07.242Z,4.20
2019-04-12T02:49:04.093Z,4.10
2019-04-12T02:51:52.372Z,4.10
2019-04-12T02:54:47.347Z,4.10
2019-04-12T02:57:33.122Z,4.10
2019-04-12T03:00:07.031Z,4.20
2019-04-12T03:02:37.996Z,4.10
2019-04-12T03:05:08.467Z,4.20
2019-04-12T03:07:38.835Z,4.10
2019-04-12T03:10:10.186Z,4.20
2019-04-12T03:12:40.859Z,4.00
2019-04-12T03:15:12.627Z,3.90
2019-04-12T03:17:43.420Z,4.00
2019-04-12T03:20:13.878Z,3.90
2019-04-12T03:22:44.365Z,4.00
2019-04-12T03:25:14.878Z,4.00
2019-04-12T03:27:45.239Z,4.00
2019-04-12T03:30:16.089Z,4.00
2019-04-12T03:32:46.559Z,3.90
2019-04-12T03:35:16.953Z,3.90
2019-04-12T03:37:47.813Z,4.00
2019-04-12T03:40:18.279Z,4.00
2019-04-12T03:42:48.826Z,4.10
2019-04-12T03:45:19.391Z,4.30
2019-04-12T03:47:49.968Z,4.10
2019-04-12T03:50:21.030Z,4.30
2019-04-12T03:52:51.403Z,4.10
2019-04-12T03:55:21.871Z,4.00
2019-04-12T03:57:52.254Z,4.10
2019-04-12T04:00:25.143Z,4.20
2019-04-12T04:02:55.703Z,4.20
2019-04-12T04:05:26.079Z,4.20
2019-04-12T04:07:56.565Z,4.20
2019-04-12T04:10:28.381Z,4.30
2019-04-12T04:12:59.082Z,4.40
2019-04-12T04:15:29.565Z,4.50
2019-04-12T04:18:22.024Z,4.30
2019-04-12T04:21:31.102Z,4.40
2019-04-12T04:24:11.478Z,4.20
2019-04-12T04:27:00.106Z,4.30
2019-04-12T04:29:40.801Z,4.30
2019-04-12T04:32:18.771Z,4.40
2019-04-12T04:34:49.310Z,4.30
2019-04-12T04:37:20.437Z,4.30
2019-04-12T04:39:51.068Z,4.30
2019-04-12T04:42:21.833Z,4.30
2019-04-12T04:44:53.158Z,4.20
2019-04-12T04:47:23.860Z,4.40
2019-04-12T04:49:54.413Z,4.40
2019-04-12T04:52:25.330Z,4.40
2019-04-12T04:54:55.739Z,4.50
2019-04-12T04:57:26.141Z,4.50
2019-04-12T04:59:56.777Z,4.40
2019-04-12T05:02:27.173Z,4.30
2019-04-12T05:04:57.938Z,4.30
2019-04-12T05:07:28.622Z,4.20
2019-04-12T05:09:59.067Z,4.40
2019-04-12T05:12:29.649Z,4.40
2019-04-12T05:15:00.074Z,4.40
2019-04-12T05:17:30.569Z,4.40
2019-04-12T05:20:00.960Z,4.40
2019-04-12T05:22:32.062Z,4.40
2019-04-12T05:25:02.836Z,4.30
2019-04-12T05:27:33.335Z,4.40
2019-04-12T05:30:04.100Z,4.30
2019-04-12T05:32:34.702Z,4.40
2019-04-12T05:35:05.455Z,4.50
2019-04-12T05:37:36.743Z,4.50
2019-04-12T05:40:07.873Z,4.50
2019-04-12T05:42:38.385Z,4.50
2019-04-12T05:45:10.482Z,4.50
2019-04-12T05:48:05.998Z,4.60
2019-04-12T05:50:38.422Z,4.50
2019-04-12T05:53:09.009Z,4.50
2019-04-12T05:55:45.928Z,4.40
2019-04-12T05:58:24.903Z,4.50
2019-04-12T06:01:16.700Z,4.50
2019-04-12T06:03:45.702Z,4.60
2019-04-12T06:06:16.088Z,4.70
2019-04-12T06:08:46.590Z,4.70
2019-04-12T06:11:17.077Z,4.70
2019-04-12T06:13:48.403Z,4.70
2019-04-12T06:16:18.872Z,4.80
2019-04-12T06:18:50.195Z,4.80
2019-04-12T06:21:39.500Z,4.70
2019-04-12T06:24:09.905Z,4.80
2019-04-12T06:27:10.149Z,4.90
2019-04-12T06:29:37.449Z,4.90
2019-04-12T06:32:07.926Z,5.00
2019-04-12T06:34:38.372Z,5.00
2019-04-12T06:37:08.854Z,5.00
2019-04-12T06:39:39.266Z,4.90
2019-04-12T06:42:09.639Z,4.90
2019-04-12T06:44:40.151Z,4.90
2019-04-12T06:47:10.549Z,5.10
2019-04-12T06:49:40.975Z,5.00
2019-04-12T06:52:11.360Z,5.10
2019-04-12T06:54:41.758Z,5.10
2019-04-12T06:57:22.977Z,5.20
2019-04-12T07:00:27.078Z,5.20
2019-04-12T07:03:18.242Z,5.30
2019-04-12T07:05:48.641Z,5.20
2019-04-12T07:08:19.010Z,5.20
2019-04-12T07:10:49.425Z,5.30
2019-04-12T07:13:20.170Z,5.30
2019-04-12T07:15:50.566Z,5.40
2019-04-12T07:18:20.939Z,5.50
2019-04-12T07:20:51.334Z,5.60
2019-04-12T07:23:21.732Z,5.70
2019-04-12T07:25:52.158Z,5.80
2019-04-12T07:28:24.639Z,5.80
2019-04-12T07:30:56.876Z,5.90
2019-04-12T07:33:27.122Z,6.00
2019-04-12T07:35:57.590Z,6.20
2019-04-12T07:38:27.995Z,6.30
2019-04-12T07:40:58.388Z,6.40
2019-04-12T07:43:28.849Z,6.40
2019-04-12T07:45:59.275Z,6.20
2019-04-12T07:48:29.759Z,6.40
2019-04-12T07:51:31.294Z,6.50
2019-04-12T07:54:19.648Z,6.60
2019-04-12T07:56:50.197Z,6.70
2019-04-12T07:59:25.060Z,6.70
2019-04-12T08:02:14.407Z,6.80
2019-04-12T08:04:53.573Z,7.00
2019-04-12T08:07:41.623Z,7.20
2019-04-12T08:10:12.149Z,7.30
2019-04-12T08:12:42.548Z,7.40
2019-04-12T08:15:13.952Z,7.50
2019-04-12T08:17:44.589Z,7.60
2019-04-12T08:20:14.960Z,7.40
2019-04-12T08:22:45.356Z,7.70
2019-04-12T08:25:15.737Z,7.90
2019-04-12T08:27:57.630Z,8.10
2019-04-12T08:30:18.378Z,8.30
2019-04-12T08:32:48.801Z,8.30
2019-04-12T08:35:19.201Z,8.50
2019-04-12T08:37:49.620Z,8.90
2019-04-12T08:40:19.995Z,9.20
2019-04-12T08:42:50.430Z,9.40
2019-04-12T08:45:21.124Z,9.50
2019-04-12T08:47:51.580Z,9.70
2019-04-12T08:50:22.037Z,10.00
2019-04-12T08:52:52.469Z,10.00
2019-04-12T08:55:23.012Z,10.30
2019-04-12T08:57:53.533Z,10.70
2019-04-12T09:00:24.082Z,11.00
2019-04-12T09:02:59.176Z,10.80
2019-04-12T09:05:32.672Z,10.80
2019-04-12T09:07:58.866Z,11.00
2019-04-12T09:10:29.411Z,11.10
2019-04-12T09:13:01.522Z,11.00
2019-04-12T09:15:32.021Z,10.90
2019-04-12T09:18:02.608Z,10.70
2019-04-12T09:20:50.953Z,11.00
2019-04-12T09:23:40.370Z,11.20
2019-04-12T09:26:10.934Z,11.30
2019-04-12T09:28:41.437Z,11.00
2019-04-12T09:31:11.914Z,11.10
2019-04-12T09:33:42.434Z,11.10
2019-04-12T09:36:12.919Z,11.20
2019-04-12T09:38:43.354Z,11.20
2019-04-12T09:41:13.735Z,11.40
2019-04-12T09:43:44.135Z,11.50
2019-04-12T09:46:14.555Z,11.60
2019-04-12T09:48:45.011Z,11.40
2019-04-12T09:51:15.435Z,11.10
2019-04-12T09:53:45.810Z,11.30
2019-04-12T09:56:16.242Z,11.10
2019-04-12T09:58:46.721Z,11.40
2019-04-12T10:01:17.210Z,11.70
2019-04-12T10:03:47.635Z,11.70
2019-04-12T10:06:18.124Z,11.80
2019-04-12T10:08:48.534Z,12.10
2019-04-12T10:11:19.006Z,12.20
2019-04-12T10:13:49.474Z,12.20
2019-04-12T10:16:19.886Z,12.30
2019-04-12T10:18:50.294Z,12.30
2019-04-12T10:21:20.692Z,12.50
2019-04-12T10:23:51.098Z,12.70
2019-04-12T10:26:21.534Z,12.70
2019-04-12T10:28:55.930Z,12.60
2019-04-12T10:31:26.464Z,12.80
2019-04-12T10:33:56.830Z,13.10
2019-04-12T10:36:27.354Z,13.00
2019-04-12T10:39:07.482Z,13.10
2019-04-12T10:41:37.878Z,13.30
2019-04-12T10:44:25.931Z,13.00
2019-04-12T10:47:02.455Z,13.20
2019-04-12T10:49:41.674Z,12.90
2019-04-12T10:52:26.166Z,13.10
2019-04-12T10:55:08.064Z,12.80
2019-04-12T10:57:38.461Z,13.00
2019-04-12T11:00:10.772Z,12.90
2019-04-12T11:02:41.174Z,12.80
2019-04-12T11:05:11.663Z,12.60
2019-04-12T11:07:42.110Z,12.60
2019-04-12T11:10:12.736Z,12.70
2019-04-12T11:12:43.187Z,12.60
2019-04-12T11:15:21.110Z,12.50
2019-04-12T11:17:45.739Z,12.50
2019-04-12T11:20:16.237Z,12.20
2019-04-12T11:22:46.650Z,12.20
2019-04-12T11:25:28.434Z,11.90
2019-04-12T11:27:49.182Z,11.90
2019-04-12T11:30:19.825Z,11.90
2019-04-12T11:32:50.287Z,11.90
2019-04-12T11:35:20.715Z,12.00
2019-04-12T11:37:51.192Z,11.80
2019-04-12T11:40:21.681Z,11.70
2019-04-12T11:42:52.151Z,11.80
2019-04-12T11:45:22.579Z,11.90
2019-04-12T11:47:53.008Z,11.90
2019-04-12T11:50:23.391Z,11.80
2019-04-12T11:52:53.807Z,11.90
2019-04-12T11:55:24.194Z,11.90
2019-04-12T11:57:54.613Z,11.70
2019-04-12T12:00:33.400Z,11.80
2019-04-12T12:03:07.814Z,11.80
2019-04-12T12:05:48.302Z,11.80
2019-04-12T12:08:29.592Z,11.60
2019-04-12T12:11:19.155Z,11.80
2019-04-12T12:14:12.625Z,11.70
2019-04-12T12:17:09.267Z,11.70
2019-04-12T12:19:39.669Z,11.60
2019-04-12T12:22:10.085Z,11.70
2019-04-12T12:24:43.221Z,11.80
2019-04-12T12:27:13.600Z,11.90
2019-04-12T12:29:44.012Z,11.80
2019-04-12T12:32:14.385Z,11.90
2019-04-12T12:34:47.259Z,11.70
2019-04-12T12:37:18.003Z,11.50
2019-04-12T12:39:48.384Z,11.60
2019-04-12T12:42:18.772Z,11.60
2019-04-12T12:44:49.177Z,11.60
2019-04-12T12:47:19.617Z,11.80
2019-04-12T12:49:50.003Z,12.00
2019-04-12T12:52:21.980Z,12.00
2019-04-12T12:54:55.574Z,12.10
2019-04-12T12:57:25.959Z,12.00
2019-04-12T12:59:56.374Z,12.00
2019-04-12T13:02:26.824Z,12.00
2019-04-12T13:04:57.276Z,11.90
2019-04-12T13:07:27.661Z,11.80
2019-04-12T13:09:58.154Z,11.80
2019-04-12T13:12:28.590Z,11.90
2019-04-12T13:14:58.985Z,11.80
2019-04-12T13:17:29.422Z,11.50
2019-04-12T13:19:59.925Z,11.60
2019-04-12T13:22:30.447Z,11.80
2019-04-12T13:25:00.856Z,11.80
2019-04-12T13:27:31.246Z,11.80
2019-04-12T13:30:08.775Z,11.80
2019-04-12T13:32:48.857Z,11.70
2019-04-12T13:35:41.013Z,11.50
2019-04-12T13:38:25.767Z,11.60
2019-04-12T13:40:57.446Z,11.50
2019-04-12T13:43:27.837Z,11.60
2019-04-12T13:45:58.324Z,11.60
2019-04-12T13:48:28.756Z,11.60
2019-04-12T13:50:59.237Z,11.50
2019-04-12T13:53:29.697Z,11.50
2019-04-12T13:56:00.200Z,11.40
2019-04-12T13:58:30.713Z,11.50
2019-04-12T14:01:01.213Z,11.60
2019-04-12T14:03:31.863Z,11.60
2019-04-12T14:06:02.304Z,11.40
2019-04-12T14:08:32.918Z,11.30
2019-04-12T14:11:03.303Z,11.40
2019-04-12T14:13:33.702Z,11.30
2019-04-12T14:16:04.191Z,11.30
2019-04-12T14:18:34.680Z,11.30
2019-04-12T14:21:05.085Z,11.30
2019-04-12T14:23:35.538Z,11.10
2019-04-12T14:26:05.939Z,10.80
2019-04-12T14:28:36.431Z,11.00
2019-04-12T14:31:12.794Z,11.00
2019-04-12T14:34:05.236Z,10.90
2019-04-12T14:36:54.253Z,10.90
2019-04-12T14:39:24.660Z,10.90
2019-04-12T14:41:55.079Z,10.90
2019-04-12T14:44:43.811Z,10.90
2019-04-12T14:47:24.323Z,10.90
2019-04-12T14:49:55.119Z,11.00
2019-04-12T14:52:25.510Z,11.00
2019-04-12T14:54:55.934Z,11.10
2019-04-12T14:57:26.322Z,10.90
2019-04-12T14:59:56.739Z,10.90
2019-04-12T15:02:28.189Z,10.90
2019-04-12T15:04:58.691Z,10.80
2019-04-12T15:07:29.078Z,10.70
2019-04-12T15:09:59.485Z,10.80
2019-04-12T15:12:29.895Z,10.80
2019-04-12T15:15:00.298Z,10.80
2019-04-12T15:17:30.748Z,10.70
2019-04-12T15:20:01.241Z,10.70
2019-04-12T15:22:31.658Z,10.70
2019-04-12T15:25:02.065Z,10.80
2019-04-12T15:27:32.467Z,10.80
2019-04-12T15:30:02.945Z,10.80
2019-04-12T15:32:33.440Z,10.60
2019-04-12T15:35:04.182Z,10.70
2019-04-12T15:37:34.574Z,10.70
2019-04-12T15:40:05.618Z,10.60
2019-04-12T15:42:36.082Z,10.60
2019-04-12T15:45:07.386Z,10.50
2019-04-12T15:47:37.874Z,10.60
2019-04-12T15:50:09.342Z,10.60
2019-04-12T15:52:39.746Z,10.60
2019-04-12T15:55:10.650Z,10.50
2019-04-12T15:57:41.150Z,10.50
2019-04-12T16:00:14.462Z,10.50
2019-04-12T16:02:45.097Z,10.60
2019-04-12T16:05:15.629Z,10.40
2019-04-12T16:07:53.037Z,10.40
2019-04-12T16:10:23.494Z,10.40
2019-04-12T16:13:13.726Z,10.00
2019-04-12T16:16:15.034Z,10.00
2019-04-12T16:18:45.593Z,10.10
2019-04-12T16:21:16.036Z,10.00
2019-04-12T16:23:46.447Z,10.10
2019-04-12T16:26:16.899Z,10.10
2019-04-12T16:29:05.134Z,10.20
2019-04-12T16:32:12.878Z,10.20
2019-04-12T16:35:02.399Z,10.20
2019-04-12T16:37:41.466Z,10.00
2019-04-12T16:40:12.400Z,10.00
2019-04-12T16:42:42.841Z,10.00
2019-04-12T16:45:13.515Z,10.10
2019-04-12T16:47:43.922Z,9.90
2019-04-12T16:50:14.881Z,9.90
2019-04-12T16:52:45.315Z,9.90
2019-04-12T16:55:15.770Z,9.90
2019-04-12T16:57:46.266Z,9.90
2019-04-12T17:00:18.374Z,9.80
2019-04-12T17:02:48.772Z,9.90
2019-04-12T17:05:19.205Z,9.80
2019-04-12T17:07:51.582Z,9.90
2019-04-12T17:10:21.754Z,9.80
2019-04-12T17:12:52.256Z,9.80
2019-04-12T17:15:22.712Z,9.80
2019-04-12T17:17:53.149Z,9.80
2019-04-12T17:20:23.620Z,9.70
2019-04-12T17:22:54.034Z,9.60
2019-04-12T17:25:24.464Z,9.60
2019-04-12T17:27:54.987Z,9.70
2019-04-12T17:30:25.508Z,9.70
2019-04-12T17:32:55.911Z,9.60
2019-04-12T17:35:26.394Z,9.50
2019-04-12T17:37:56.816Z,9.50
2019-04-12T17:40:27.395Z,9.40
2019-04-12T17:42:57.870Z,9.40
2019-04-12T17:45:28.302Z,9.40
2019-04-12T17:47:58.730Z,9.30
2019-04-12T17:50:42.849Z,9.30
2019-04-12T17:53:38.110Z,9.30
2019-04-12T17:56:11.651Z,9.30
2019-04-12T17:58:42.086Z,9.10
2019-04-12T18:01:25.010Z,9.20
2019-04-12T18:03:57.168Z,9.20
2019-04-12T18:06:27.705Z,9.20
2019-04-12T18:08:58.158Z,9.20
2019-04-12T18:11:48.574Z,9.10
2019-04-12T18:14:19.035Z,9.10
2019-04-12T18:16:51.185Z,9.10
2019-04-12T18:19:21.703Z,9.00
2019-04-12T18:21:52.151Z,9.00
2019-04-12T18:24:22.565Z,9.00
2019-04-12T18:26:52.989Z,9.00
2019-04-12T18:29:23.394Z,9.00
2019-04-12T18:31:53.825Z,9.00
2019-04-12T18:34:24.302Z,9.00
2019-04-12T18:36:54.824Z,9.00
2019-04-12T18:39:25.231Z,8.90
2019-04-12T18:41:55.686Z,9.00
2019-04-12T18:44:26.097Z,8.80
2019-04-12T18:46:56.546Z,8.90
2019-04-12T18:49:26.991Z,8.80
2019-04-12T18:51:57.428Z,8.90
2019-04-12T18:54:30.064Z,8.80
2019-04-12T18:57:00.489Z,8.70
2019-04-12T18:59:30.938Z,8.80
2019-04-12T19:02:01.355Z,8.80
2019-04-12T19:04:31.833Z,8.80
2019-04-12T19:07:02.364Z,8.60
2019-04-12T19:09:32.871Z,8.60
2019-04-12T19:12:03.355Z,8.70
2019-04-12T19:14:33.818Z,8.50
2019-04-12T19:17:04.297Z,8.70
2019-04-12T19:19:34.767Z,8.60
2019-04-12T19:22:05.218Z,8.50
2019-04-12T19:24:35.627Z,8.50
2019-04-12T19:27:06.144Z,8.40
2019-04-12T19:29:38.696Z,8.30
2019-04-12T19:32:40.229Z,8.20
2019-04-12T19:35:28.644Z,8.20
2019-04-12T19:38:18.012Z,8.10
2019-04-12T19:40:49.350Z,8.10
2019-04-12T19:43:19.771Z,8.20
2019-04-12T19:45:50.225Z,8.00
2019-04-12T19:48:20.753Z,8.00
2019-04-12T19:50:51.200Z,7.90
2019-04-12T19:53:21.602Z,7.90
2019-04-12T19:55:51.990Z,7.90
2019-04-12T19:58:22.398Z,7.80
2019-04-12T20:00:52.786Z,7.80
2019-04-12T20:03:23.231Z,7.60
2019-04-12T20:05:53.696Z,7.50
2019-04-12T20:08:24.128Z,7.50
2019-04-12T20:10:54.572Z,7.60
2019-04-12T20:13:25.030Z,7.60
2019-04-12T20:15:55.513Z,7.70
2019-04-12T20:18:25.904Z,7.60
2019-04-12T20:20:56.379Z,7.60
2019-04-12T20:23:26.931Z,7.60
2019-04-12T20:25:57.445Z,7.50
2019-04-12T20:28:27.850Z,7.50
2019-04-12T20:30:58.315Z,7.60
2019-04-12T20:33:28.737Z,7.60
2019-04-12T20:35:59.190Z,7.60
2019-04-12T20:38:29.835Z,7.60
2019-04-12T20:41:00.258Z,7.60
2019-04-12T20:43:30.652Z,7.60
2019-04-12T20:46:01.155Z,7.50
2019-04-12T20:48:31.575Z,7.60
2019-04-12T20:51:02.004Z,7.60
2019-04-12T20:53:32.414Z,7.60
2019-04-12T20:56:14.618Z,7.60
2019-04-12T20:58:34.956Z,7.50
2019-04-12T21:01:05.922Z,7.50
2019-04-12T21:03:36.312Z,7.50
2019-04-12T21:06:06.751Z,7.50
2019-04-12T21:08:37.183Z,7.50
2019-04-12T21:11:07.595Z,7.50
2019-04-12T21:13:38.064Z,7.40
2019-04-12T21:16:08.562Z,7.30
2019-04-12T21:18:38.941Z,7.20
2019-04-12T21:21:09.407Z,7.20
2019-04-12T21:23:39.836Z,7.20
2019-04-12T21:26:10.229Z,7.30
2019-04-12T21:28:40.641Z,7.20
2019-04-12T21:31:11.050Z,7.40
2019-04-12T21:33:41.461Z,7.40
2019-04-12T21:36:11.960Z,7.30
2019-04-12T21:38:42.410Z,7.30
2019-04-12T21:41:12.794Z,7.40
2019-04-12T21:43:43.230Z,7.30
2019-04-12T21:46:19.493Z,7.30
2019-04-12T21:48:45.766Z,7.30
2019-04-12T21:51:16.181Z,7.30
2019-04-12T21:53:46.642Z,7.40
2019-04-12T21:56:17.019Z,7.30
2019-04-12T21:58:47.409Z,7.20
2019-04-12T22:01:19.335Z,7.20
2019-04-12T22:03:50.460Z,7.20
2019-04-12T22:06:20.859Z,7.20
2019-04-12T22:08:51.282Z,7.20
2019-04-12T22:11:21.730Z,7.10
2019-04-12T22:13:52.177Z,7.20
2019-04-12T22:16:22.618Z,7.10
2019-04-12T22:18:53.042Z,7.00
2019-04-12T22:21:23.452Z,7.00
2019-04-12T22:23:53.870Z,7.00
2019-04-12T22:26:24.249Z,6.90
2019-04-12T22:28:54.651Z,6.70
2019-04-12T22:31:26.271Z,6.80
2019-04-12T22:33:56.657Z,6.80
2019-04-12T22:36:27.049Z,6.70
2019-04-12T22:39:00.301Z,6.70
2019-04-12T22:41:34.310Z,6.60
2019-04-12T22:44:04.711Z,6.50
2019-04-12T22:46:35.081Z,6.50
2019-04-12T22:49:05.432Z,6.60
2019-04-12T22:51:35.842Z,6.60
2019-04-12T22:54:06.221Z,6.50
2019-04-12T22:56:36.601Z,6.60
2019-04-12T22:59:07.131Z,6.50
2019-04-12T23:01:37.558Z,6.40
2019-04-12T23:04:07.931Z,6.30
2019-04-12T23:06:38.389Z,6.40
2019-04-12T23:09:08.819Z,6.40
2019-04-12T23:11:39.291Z,6.50
2019-04-12T23:14:10.214Z,6.60
2019-04-12T23:16:40.590Z,6.60
2019-04-12T23:19:11.118Z,6.40
2019-04-12T23:21:41.641Z,6.20
2019-04-12T23:24:12.005Z,6.30
2019-04-12T23:26:42.398Z,6.40
2019-04-12T23:29:12.746Z,6.30
2019-04-12T23:31:46.725Z,6.40
2019-04-12T23:34:34.102Z,6.50
2019-04-12T23:37:04.522Z,6.50
2019-04-12T23:39:35.042Z,6.40
2019-04-12T23:42:05.561Z,6.40
2019-04-12T23:44:36.074Z,6.20
2019-04-12T23:47:06.467Z,6.30
2019-04-12T23:49:36.814Z,6.30
2019-04-12T23:52:07.189Z,6.20
2019-04-12T23:54:37.535Z,6.30
2019-04-12T23:57:07.949Z,6.30
2019-04-12T23:59:38.318Z,6.20
